Time;durP1;ratioP1;P1;durP2;ratioP2;P2;SDS_P1;SDS_P2;PMS_P1;PMS_P2;Temp;Humidity;BMP_temperature;BMP_pressure;BME280_temperature;BME280_humidity;BME280_pressure;Samples;Min_cycle;Max_cycle;Signal;HPM_P1;HPM_P2
2021/10/29 00:00:14;;;;;;;;;;;;;;;;;;345833;28;980;-84
2021/10/29 00:00:40;;;;;;;;;;;;;;;;;;346640;28;1409;-83
2021/10/29 00:00:57;;;;;;;;;;;;;;;;;;347121;28;1201;-82
2021/10/29 00:01:09;;;;;;;;;;;;;;;;;;347134;28;775;-82
2021/10/29 00:01:19;;;;;;;;;;;;;;;;;;347121;28;988;-78
2021/10/29 00:01:31;;;;;;;;;;;;;;;;;;347160;28;764;-84
2021/10/29 00:02:07;;;;;;;;;;;;;;;;;;348585;28;846;-79
2021/10/29 00:02:17;;;;;;;;;;;;;;;;;;348549;28;906;-83
2021/10/29 00:02:28;;;;;;;;;;;;;;;;;;349290;28;936;-78
2021/10/29 00:02:38;;;;;;;;;;;;;;;;;;349941;28;775;-79
2021/10/29 00:02:48;;;;;;;;;;;;;;;;;;349873;28;973;-81
2021/10/29 00:02:59;;;;;;;;;;;;;;;;;;348533;28;791;-80
2021/10/29 00:03:25;;;;;;;;;;;;;;;;;;348540;28;1032;-77
2021/10/29 00:03:35;;;;;;;;;;;;;;;;;;347207;28;889;-78
2021/10/29 00:04:37;;;;;;;;;;;;;;;;;;347110;28;811;-77
2021/10/29 00:04:48;;;;;;;;;;;;;;;;;;347064;28;819;-80
2021/10/29 00:04:58;;;;;;;;;;;;;;;;;;348430;28;1277;-84
2021/10/29 00:05:09;;;;;;;;;;;;;;;;;;348461;28;1004;-83
2021/10/29 00:05:25;;;;;;;;;;;;;;;;;;348577;28;913;-81
2021/10/29 00:05:41;;;;;;;;;;;;;;;;;;349794;28;865;-81
2021/10/29 00:05:52;;;;;;;;;;;;;;;;;;349960;28;1027;-82
2021/10/29 00:06:02;;;;;;;;;;;;;;;;;;349935;28;1149;-85
2021/10/29 00:06:13;;;;;;;;;;;;;;;;;;348404;28;1168;-82
2021/10/29 00:06:23;;;;;;;;;;;;;;;;;;348470;28;1163;-81
2021/10/29 00:06:34;;;;;;;;;;;;;;;;;;348516;28;969;-79
2021/10/29 00:06:44;;;;;;;;;;;;;;;;;;348451;28;1269;-81
2021/10/29 00:06:55;;;;;;;;;;;;;;;;;;347748;28;885;-83
2021/10/29 00:07:05;;;;;;;;;;;;;;;;;;347228;28;760;-78
2021/10/29 00:07:15;;;;;;;;;;;;;;;;;;347138;28;992;-83
2021/10/29 00:07:52;;;;;;;;;;;;;;;;;;345733;28;807;-82
2021/10/29 00:08:03;;;;;;;;;;;;;;;;;;345701;28;1189;-85
2021/10/29 00:08:13;;;;;;;;;;;;;;;;;;345767;28;937;-83
2021/10/29 00:08:24;;;;;;;;;;;;;;;;;;345751;28;854;-81
2021/10/29 00:08:35;;;;;;;;;;;;;;;;;;345843;28;882;-80
2021/10/29 00:08:45;;;;;;;;;;;;;;;;;;344473;28;1001;-79
2021/10/29 00:08:56;;;;;;;;;;;;;;;;;;347094;28;1315;-78
2021/10/29 00:09:07;;;;;;;;;;;;;;;;;;347167;28;929;-82
2021/10/29 00:09:17;;;;;;;;;;;;;;;;;;347047;28;1334;-81
2021/10/29 00:09:28;;;;;;;;;;;;;;;;;;347170;28;958;-79
2021/10/29 00:09:38;;;;;;;;;;;;;;;;;;347100;28;961;-83
2021/10/29 00:10:14;;;;;;;;;;;;;;;;;;344444;28;993;-76
2021/10/29 00:10:25;;;;;;;;;;;;;;;;;;344487;28;965;-76
2021/10/29 00:10:36;;;;;;;;;;;;;;;;;;344468;28;866;-80
2021/10/29 00:10:47;;;;;;;;;;;;;;;;;;345775;28;937;-81
2021/10/29 00:11:15;;;;;;;;;;;;;;;;;;347056;28;1264;-79
2021/10/29 00:11:26;;;;;;;;;;;;;;;;;;348595;28;869;-81
2021/10/29 00:11:36;;;;;;;;;;;;;;;;;;348507;28;853;-79
2021/10/29 00:11:46;;;;;;;;;;;;;;;;;;349405;28;806;-78
2021/10/29 00:12:03;;;;;;;;;;;;;;;;;;348476;28;1179;-77
2021/10/29 00:12:14;;;;;;;;;;;;;;;;;;348486;28;984;-83
2021/10/29 00:12:25;;;;;;;;;;;;;;;;;;347204;28;798;-80
2021/10/29 00:12:35;;;;;;;;;;;;;;;;;;347130;28;823;-79
2021/10/29 00:12:46;;;;;;;;;;;;;;;;;;346852;28;943;-82
2021/10/29 00:12:56;;;;;;;;;;;;;;;;;;346055;28;826;-84
2021/10/29 00:13:07;;;;;;;;;;;;;;;;;;345800;28;1028;-85
2021/10/29 00:13:18;;;;;;;;;;;;;;;;;;345854;28;802;-82
2021/10/29 00:13:28;;;;;;;;;;;;;;;;;;345824;28;960;-82
2021/10/29 00:13:38;;;;;;;;;;;;;;;;;;345793;28;1015;-78
2021/10/29 00:13:55;;;;;;;;;;;;;;;;;;345900;28;1016;-80
2021/10/29 00:14:06;;;;;;;;;;;;;;;;;;347093;28;783;-84
2021/10/29 00:14:16;;;;;;;;;;;;;;;;;;347318;28;973;-82
2021/10/29 00:14:30;;;;;;;;;;;;;;;;;;348439;28;1027;-84
2021/10/29 00:14:41;;;;;;;;;;;;;;;;;;348488;28;921;-81
2021/10/29 00:14:52;;;;;;;;;;;;;;;;;;348441;28;929;-78
2021/10/29 00:15:03;;;;;;;;;;;;;;;;;;348440;28;782;-84
2021/10/29 00:15:13;;;;;;;;;;;;;;;;;;347085;28;1188;-85
2021/10/29 00:15:24;;;;;;;;;;;;;;;;;;346818;28;1003;-81
2021/10/29 00:15:35;;;;;;;;;;;;;;;;;;347177;28;782;-82
2021/10/29 00:15:45;;;;;;;;;;;;;;;;;;347085;28;1566;-82
2021/10/29 00:15:56;;;;;;;;;;;;;;;;;;348519;28;1084;-84
2021/10/29 00:16:06;;;;;;;;;;;;;;;;;;348508;28;881;-84
2021/10/29 00:16:16;;;;;;;;;;;;;;;;;;347205;28;1039;-82
2021/10/29 00:16:33;;;;;;;;;;;;;;;;;;349961;28;841;-83
2021/10/29 00:16:50;;;;;;;;;;;;;;;;;;349911;28;861;-81
2021/10/29 00:17:01;;;;;;;;;;;;;;;;;;349896;28;842;-82
2021/10/29 00:17:11;;;;;;;;;;;;;;;;;;347054;28;1216;-81
2021/10/29 00:17:22;;;;;;;;;;;;;;;;;;345696;28;1393;-82
2021/10/29 00:17:32;;;;;;;;;;;;;;;;;;343128;28;986;-82
2021/10/29 00:17:43;;;;;;;;;;;;;;;;;;343097;28;962;-84
2021/10/29 00:17:53;;;;;;;;;;;;;;;;;;343136;28;885;-82
2021/10/29 00:18:04;;;;;;;;;;;;;;;;;;341660;29;970;-84
2021/10/29 00:18:14;;;;;;;;;;;;;;;;;;343071;28;783;-82
2021/10/29 00:18:25;;;;;;;;;;;;;;;;;;345739;28;1343;-82
2021/10/29 00:18:36;;;;;;;;;;;;;;;;;;346853;28;1180;-84
2021/10/29 00:18:46;;;;;;;;;;;;;;;;;;347155;28;981;-79
2021/10/29 00:19:02;;;;;;;;;;;;;;;;;;345636;28;1180;-82
2021/10/29 00:19:28;;;;;;;;;;;;;;;;;;345799;28;842;-81
2021/10/29 00:19:38;;;;;;;;;;;;;;;;;;347215;28;838;-82
2021/10/29 00:19:49;;;;;;;;;;;;;;;;;;344224;28;1400;-83
2021/10/29 00:19:59;;;;;;;;;;;;;;;;;;342949;28;1268;-82
2021/10/29 00:20:10;;;;;;;;;;;;;;;;;;343113;28;910;-81
2021/10/29 00:20:20;;;;;;;;;;;;;;;;;;342429;28;1028;-84
2021/10/29 00:20:31;;;;;;;;;;;;;;;;;;342378;28;784;-82
2021/10/29 00:20:41;;;;;;;;;;;;;;;;;;344493;28;779;-80
2021/10/29 00:21:07;;;;;;;;;;;;;;;;;;345822;28;838;-79
2021/10/29 00:21:23;;;;;;;;;;;;;;;;;;347110;28;870;-83
2021/10/29 00:21:34;;;;;;;;;;;;;;;;;;347130;28;1037;-80
2021/10/29 00:21:44;;;;;;;;;;;;;;;;;;348332;28;953;-79
2021/10/29 00:21:55;;;;;;;;;;;;;;;;;;349953;28;880;-82
2021/10/29 00:22:05;;;;;;;;;;;;;;;;;;348504;28;1524;-80
2021/10/29 00:22:16;;;;;;;;;;;;;;;;;;348441;28;1226;-83
2021/10/29 00:22:26;;;;;;;;;;;;;;;;;;348514;28;980;-81
2021/10/29 00:22:38;;;;;;;;;;;;;;;;;;348523;28;960;-78
2021/10/29 00:22:48;;;;;;;;;;;;;;;;;;346321;28;1293;-84
2021/10/29 00:22:59;;;;;;;;;;;;;;;;;;345725;28;1151;-85
2021/10/29 00:23:09;;;;;;;;;;;;;;;;;;344264;28;1517;-86
2021/10/29 00:23:27;;;;;;;;;;;;;;;;;;345635;28;917;-80
2021/10/29 00:23:38;;;;;;;;;;;;;;;;;;345747;28;905;-80
2021/10/29 00:23:48;;;;;;;;;;;;;;;;;;345788;28;929;-80
2021/10/29 00:23:59;;;;;;;;;;;;;;;;;;345826;28;806;-79
2021/10/29 00:24:09;;;;;;;;;;;;;;;;;;344343;28;1297;-84
2021/10/29 00:24:20;;;;;;;;;;;;;;;;;;344332;28;1459;-82
2021/10/29 00:25:03;;;;;;;;;;;;;;;;;;344979;28;922;-74
2021/10/29 00:25:14;;;;;;;;;;;;;;;;;;347177;28;802;-80
2021/10/29 00:25:30;;;;;;;;;;;;;;;;;;347158;28;841;-79
2021/10/29 00:25:41;;;;;;;;;;;;;;;;;;347062;28;797;-80
2021/10/29 00:25:51;;;;;;;;;;;;;;;;;;347096;28;952;-84
2021/10/29 00:26:01;;;;;;;;;;;;;;;;;;345803;28;1289;-82
2021/10/29 00:26:12;;;;;;;;;;;;;;;;;;347155;28;980;-82
2021/10/29 00:26:23;;;;;;;;;;;;;;;;;;348359;28;1246;-80
2021/10/29 00:26:59;;;;;;;;;;;;;;;;;;347039;28;1176;-86
2021/10/29 00:27:09;;;;;;;;;;;;;;;;;;345679;28;1307;-84
2021/10/29 00:27:20;;;;;;;;;;;;;;;;;;345849;28;810;-82
2021/10/29 00:27:30;;;;;;;;;;;;;;;;;;344345;28;1523;-84
2021/10/29 00:27:41;;;;;;;;;;;;;;;;;;344417;28;989;-81
2021/10/29 00:27:52;;;;;;;;;;;;;;;;;;344301;28;1223;-83
2021/10/29 00:28:28;;;;;;;;;;;;;;;;;;345850;28;830;-82
2021/10/29 00:28:39;;;;;;;;;;;;;;;;;;347053;28;1283;-81
2021/10/29 00:28:49;;;;;;;;;;;;;;;;;;347132;28;822;-81
2021/10/29 00:29:00;;;;;;;;;;;;;;;;;;347059;28;841;-81
2021/10/29 00:29:10;;;;;;;;;;;;;;;;;;347169;28;822;-83
2021/10/29 00:29:21;;;;;;;;;;;;;;;;;;347151;28;980;-84
2021/10/29 00:29:31;;;;;;;;;;;;;;;;;;347218;28;846;-75
2021/10/29 00:29:42;;;;;;;;;;;;;;;;;;345694;28;1419;-83
2021/10/29 00:29:54;;;;;;;;;;;;;;;;;;344407;28;1087;-81
2021/10/29 00:30:31;;;;;;;;;;;;;;;;;;343457;28;827;-81
2021/10/29 00:30:41;;;;;;;;;;;;;;;;;;347194;28;794;-83
2021/10/29 00:31:18;;;;;;;;;;;;;;;;;;345785;28;841;-83
2021/10/29 00:31:28;;;;;;;;;;;;;;;;;;345766;28;1176;-84
2021/10/29 00:32:05;;;;;;;;;;;;;;;;;;348460;28;971;-83
2021/10/29 00:32:16;;;;;;;;;;;;;;;;;;348356;28;825;-84
2021/10/29 00:32:28;;;;;;;;;;;;;;;;;;347152;28;896;-82
2021/10/29 00:32:39;;;;;;;;;;;;;;;;;;346248;28;1415;-80
2021/10/29 00:32:50;;;;;;;;;;;;;;;;;;346550;28;953;-81
2021/10/29 00:33:00;;;;;;;;;;;;;;;;;;347126;28;921;-82
2021/10/29 00:33:11;;;;;;;;;;;;;;;;;;347124;28;905;-81
2021/10/29 00:33:47;;;;;;;;;;;;;;;;;;345659;28;1152;-83
2021/10/29 00:33:58;;;;;;;;;;;;;;;;;;344149;28;1175;-80
2021/10/29 00:34:08;;;;;;;;;;;;;;;;;;344423;28;905;-78
2021/10/29 00:34:19;;;;;;;;;;;;;;;;;;344460;28;822;-77
2021/10/29 00:34:55;;;;;;;;;;;;;;;;;;344354;28;1032;-80
2021/10/29 00:35:21;;;;;;;;;;;;;;;;;;344210;28;977;-85
2021/10/29 00:35:32;;;;;;;;;;;;;;;;;;345751;28;1015;-82
2021/10/29 00:36:09;;;;;;;;;;;;;;;;;;348459;28;822;-78
2021/10/29 00:36:19;;;;;;;;;;;;;;;;;;347128;28;876;-80
2021/10/29 00:36:29;;;;;;;;;;;;;;;;;;347115;28;842;-84
2021/10/29 00:36:55;;;;;;;;;;;;;;;;;;347055;28;873;-81
2021/10/29 00:37:06;;;;;;;;;;;;;;;;;;347149;28;866;-84
2021/10/29 00:37:16;;;;;;;;;;;;;;;;;;347107;28;981;-83
2021/10/29 00:37:26;;;;;;;;;;;;;;;;;;347109;28;968;-83
2021/10/29 00:37:38;;;;;;;;;;;;;;;;;;348373;28;1278;-84
2021/10/29 00:37:48;;;;;;;;;;;;;;;;;;347104;28;1616;-76
2021/10/29 00:37:59;;;;;;;;;;;;;;;;;;347184;28;822;-82
2021/10/29 00:38:21;;;;;;;;;;;;;;;;;;347156;28;909;-76
2021/10/29 00:38:32;;;;;;;;;;;;;;;;;;348632;28;845;-82
2021/10/29 00:38:42;;;;;;;;;;;;;;;;;;348463;28;961;-86
2021/10/29 00:38:52;;;;;;;;;;;;;;;;;;347045;28;972;-79
2021/10/29 00:39:03;;;;;;;;;;;;;;;;;;347184;28;1039;-80
2021/10/29 00:39:14;;;;;;;;;;;;;;;;;;347185;28;806;-79
2021/10/29 00:39:30;;;;;;;;;;;;;;;;;;344432;28;1409;-83
2021/10/29 00:39:46;;;;;;;;;;;;;;;;;;344414;28;878;-77
2021/10/29 00:39:56;;;;;;;;;;;;;;;;;;345792;28;806;-75
2021/10/29 00:40:09;;;;;;;;;;;;;;;;;;344329;28;822;-75
2021/10/29 00:40:19;;;;;;;;;;;;;;;;;;344232;28;1032;-80
2021/10/29 00:40:30;;;;;;;;;;;;;;;;;;342960;28;1406;-79
2021/10/29 00:40:40;;;;;;;;;;;;;;;;;;345463;28;954;-83
2021/10/29 00:40:51;;;;;;;;;;;;;;;;;;344414;28;929;-83
2021/10/29 00:41:02;;;;;;;;;;;;;;;;;;345687;28;933;-80
2021/10/29 00:41:12;;;;;;;;;;;;;;;;;;344219;28;1483;-79
2021/10/29 00:41:29;;;;;;;;;;;;;;;;;;347083;28;1444;-84
2021/10/29 00:41:39;;;;;;;;;;;;;;;;;;346861;28;1025;-80
2021/10/29 00:41:55;;;;;;;;;;;;;;;;;;347024;28;1655;-84
2021/10/29 00:42:06;;;;;;;;;;;;;;;;;;346892;28;1041;-83
2021/10/29 00:42:16;;;;;;;;;;;;;;;;;;345661;28;1203;-85
2021/10/29 00:42:27;;;;;;;;;;;;;;;;;;345806;28;798;-81
2021/10/29 00:42:38;;;;;;;;;;;;;;;;;;345809;28;842;-83
2021/10/29 00:42:48;;;;;;;;;;;;;;;;;;345814;28;968;-82
2021/10/29 00:42:59;;;;;;;;;;;;;;;;;;344383;28;1159;-81
2021/10/29 00:43:10;;;;;;;;;;;;;;;;;;345191;28;961;-81
2021/10/29 00:43:58;;;;;;;;;;;;;;;;;;345795;28;966;-80
2021/10/29 00:44:08;;;;;;;;;;;;;;;;;;345861;28;981;-80
2021/10/29 00:44:23;;;;;;;;;;;;;;;;;;348390;28;1199;-82
2021/10/29 00:44:33;;;;;;;;;;;;;;;;;;348510;28;896;-82
2021/10/29 00:45:13;;;;;;;;;;;;;;;;;;347102;28;1007;-79
2021/10/29 00:45:23;;;;;;;;;;;;;;;;;;346891;28;1270;-84
2021/10/29 00:46:00;;;;;;;;;;;;;;;;;;347162;28;982;-80
2021/10/29 00:46:10;;;;;;;;;;;;;;;;;;347073;28;929;-76
2021/10/29 00:46:21;;;;;;;;;;;;;;;;;;345605;28;1297;-77
2021/10/29 00:46:58;;;;;;;;;;;;;;;;;;347145;28;921;-83
2021/10/29 00:47:08;;;;;;;;;;;;;;;;;;347152;28;1031;-83
2021/10/29 00:47:18;;;;;;;;;;;;;;;;;;347095;28;977;-85
2021/10/29 00:47:29;;;;;;;;;;;;;;;;;;346260;28;869;-77
2021/10/29 00:47:39;;;;;;;;;;;;;;;;;;347121;28;981;-79
2021/10/29 00:47:52;;;;;;;;;;;;;;;;;;347046;28;981;-80
2021/10/29 00:48:03;;;;;;;;;;;;;;;;;;347107;28;806;-85
2021/10/29 00:48:13;;;;;;;;;;;;;;;;;;345694;28;1282;-84
2021/10/29 00:48:24;;;;;;;;;;;;;;;;;;345687;28;901;-82
2021/10/29 00:48:35;;;;;;;;;;;;;;;;;;344351;28;807;-81
2021/10/29 00:48:46;;;;;;;;;;;;;;;;;;344380;28;985;-79
2021/10/29 00:48:56;;;;;;;;;;;;;;;;;;344354;28;1577;-75
2021/10/29 00:49:06;;;;;;;;;;;;;;;;;;344434;28;973;-82
2021/10/29 00:49:17;;;;;;;;;;;;;;;;;;344387;28;1013;-77
2021/10/29 00:49:27;;;;;;;;;;;;;;;;;;345435;28;835;-79
2021/10/29 00:49:38;;;;;;;;;;;;;;;;;;347048;28;1423;-81
2021/10/29 00:49:48;;;;;;;;;;;;;;;;;;345709;28;1214;-80
2021/10/29 00:49:59;;;;;;;;;;;;;;;;;;345641;28;952;-82
2021/10/29 00:50:10;;;;;;;;;;;;;;;;;;345584;28;1313;-85
2021/10/29 00:50:20;;;;;;;;;;;;;;;;;;345471;28;962;-79
2021/10/29 00:50:31;;;;;;;;;;;;;;;;;;345679;28;1325;-84
2021/10/29 00:50:41;;;;;;;;;;;;;;;;;;345757;28;822;-84
2021/10/29 00:50:51;;;;;;;;;;;;;;;;;;345740;28;1040;-83
2021/10/29 00:51:03;;;;;;;;;;;;;;;;;;345780;28;894;-83
2021/10/29 00:51:14;;;;;;;;;;;;;;;;;;345756;28;929;-84
2021/10/29 00:51:25;;;;;;;;;;;;;;;;;;345795;28;988;-80
2021/10/29 00:51:36;;;;;;;;;;;;;;;;;;342906;28;1289;-83
2021/10/29 00:51:46;;;;;;;;;;;;;;;;;;346990;28;1308;-82
2021/10/29 00:51:57;;;;;;;;;;;;;;;;;;347143;28;969;-81
2021/10/29 00:52:07;;;;;;;;;;;;;;;;;;347170;28;857;-80
2021/10/29 00:52:18;;;;;;;;;;;;;;;;;;346819;28;1072;-85
2021/10/29 00:52:28;;;;;;;;;;;;;;;;;;348028;28;964;-84
2021/10/29 00:52:39;;;;;;;;;;;;;;;;;;348502;28;767;-82
2021/10/29 00:52:49;;;;;;;;;;;;;;;;;;348478;28;806;-82
2021/10/29 00:53:00;;;;;;;;;;;;;;;;;;345623;28;1330;-83
2021/10/29 00:53:26;;;;;;;;;;;;;;;;;;345780;28;861;-80
2021/10/29 00:53:36;;;;;;;;;;;;;;;;;;345707;28;1079;-83
2021/10/29 00:53:47;;;;;;;;;;;;;;;;;;342992;28;1303;-83
2021/10/29 00:53:57;;;;;;;;;;;;;;;;;;343062;28;862;-80
2021/10/29 00:54:24;;;;;;;;;;;;;;;;;;343063;28;823;-84
2021/10/29 00:54:34;;;;;;;;;;;;;;;;;;342997;28;901;-84
2021/10/29 00:54:45;;;;;;;;;;;;;;;;;;344375;28;830;-77
2021/10/29 00:54:56;;;;;;;;;;;;;;;;;;345658;28;776;-78
2021/10/29 00:55:06;;;;;;;;;;;;;;;;;;347078;28;1434;-84
2021/10/29 00:55:17;;;;;;;;;;;;;;;;;;346873;28;1131;-84
2021/10/29 00:55:27;;;;;;;;;;;;;;;;;;345570;28;1484;-83
2021/10/29 00:55:38;;;;;;;;;;;;;;;;;;345753;28;1213;-83
2021/10/29 00:55:49;;;;;;;;;;;;;;;;;;345485;28;1274;-84
2021/10/29 00:55:59;;;;;;;;;;;;;;;;;;345716;28;810;-79
2021/10/29 00:56:09;;;;;;;;;;;;;;;;;;345647;28;1224;-82
2021/10/29 00:56:47;;;;;;;;;;;;;;;;;;345580;28;1248;-82
2021/10/29 00:56:58;;;;;;;;;;;;;;;;;;345747;28;787;-83
2021/10/29 00:57:09;;;;;;;;;;;;;;;;;;347059;28;980;-82
2021/10/29 00:57:20;;;;;;;;;;;;;;;;;;347086;28;913;-83
2021/10/29 00:57:30;;;;;;;;;;;;;;;;;;347125;28;925;-85
2021/10/29 00:57:41;;;;;;;;;;;;;;;;;;345772;28;874;-83
2021/10/29 00:57:51;;;;;;;;;;;;;;;;;;345751;28;941;-83
2021/10/29 00:58:02;;;;;;;;;;;;;;;;;;346005;28;818;-83
2021/10/29 00:58:12;;;;;;;;;;;;;;;;;;347304;28;799;-83
2021/10/29 00:58:23;;;;;;;;;;;;;;;;;;347095;28;917;-81
2021/10/29 00:58:34;;;;;;;;;;;;;;;;;;347184;28;857;-84
2021/10/29 00:58:44;;;;;;;;;;;;;;;;;;346190;28;969;-82
2021/10/29 00:58:55;;;;;;;;;;;;;;;;;;345728;28;869;-83
2021/10/29 00:59:05;;;;;;;;;;;;;;;;;;344901;28;933;-84
2021/10/29 00:59:48;;;;;;;;;;;;;;;;;;347146;28;933;-84
2021/10/29 00:59:59;;;;;;;;;;;;;;;;;;347073;28;996;-84
2021/10/29 01:00:10;;;;;;;;;;;;;;;;;;346937;28;1459;-82
2021/10/29 01:00:22;;;;;;;;;;;;;;;;;;347890;28;924;-84
2021/10/29 01:00:32;;;;;;;;;;;;;;;;;;348370;28;783;-85
2021/10/29 01:00:58;;;;;;;;;;;;;;;;;;347120;28;1075;-84
2021/10/29 01:01:08;;;;;;;;;;;;;;;;;;345529;28;1386;-84
2021/10/29 01:01:19;;;;;;;;;;;;;;;;;;345736;28;974;-81
2021/10/29 01:01:29;;;;;;;;;;;;;;;;;;344321;28;926;-84
2021/10/29 01:01:40;;;;;;;;;;;;;;;;;;344393;28;846;-85
2021/10/29 01:01:50;;;;;;;;;;;;;;;;;;344431;28;842;-83
2021/10/29 01:02:01;;;;;;;;;;;;;;;;;;344371;28;814;-82
2021/10/29 01:02:12;;;;;;;;;;;;;;;;;;344417;28;752;-83
2021/10/29 01:02:22;;;;;;;;;;;;;;;;;;345613;28;1464;-84
2021/10/29 01:02:32;;;;;;;;;;;;;;;;;;345472;28;1195;-82
2021/10/29 01:02:43;;;;;;;;;;;;;;;;;;345521;28;1015;-84
2021/10/29 01:02:53;;;;;;;;;;;;;;;;;;345467;28;850;-80
2021/10/29 01:03:04;;;;;;;;;;;;;;;;;;345417;28;1186;-83
2021/10/29 01:03:14;;;;;;;;;;;;;;;;;;345748;28;1056;-84
2021/10/29 01:03:24;;;;;;;;;;;;;;;;;;345681;28;818;-83
2021/10/29 01:03:36;;;;;;;;;;;;;;;;;;347096;28;865;-84
2021/10/29 01:03:46;;;;;;;;;;;;;;;;;;348239;28;1594;-83
2021/10/29 01:03:57;;;;;;;;;;;;;;;;;;345772;28;1040;-85
2021/10/29 01:04:07;;;;;;;;;;;;;;;;;;345788;28;882;-84
2021/10/29 01:04:18;;;;;;;;;;;;;;;;;;345858;28;973;-84
2021/10/29 01:04:28;;;;;;;;;;;;;;;;;;345716;28;508;-83
2021/10/29 01:04:38;;;;;;;;;;;;;;;;;;347083;28;985;-85
2021/10/29 01:04:49;;;;;;;;;;;;;;;;;;346815;28;1351;-81
2021/10/29 01:05:02;;;;;;;;;;;;;;;;;;346977;28;1168;-83
2021/10/29 01:05:13;;;;;;;;;;;;;;;;;;345606;28;1293;-81
2021/10/29 01:05:23;;;;;;;;;;;;;;;;;;345681;28;893;-82
2021/10/29 01:05:34;;;;;;;;;;;;;;;;;;345542;28;981;-85
2021/10/29 01:05:44;;;;;;;;;;;;;;;;;;345741;28;834;-84
2021/10/29 01:05:54;;;;;;;;;;;;;;;;;;344299;28;1184;-83
2021/10/29 01:06:05;;;;;;;;;;;;;;;;;;343048;28;929;-83
2021/10/29 01:06:15;;;;;;;;;;;;;;;;;;343015;28;1234;-85
2021/10/29 01:06:41;;;;;;;;;;;;;;;;;;343113;28;811;-86
2021/10/29 01:06:51;;;;;;;;;;;;;;;;;;343211;28;819;-83
2021/10/29 01:07:28;;;;;;;;;;;;;;;;;;344412;28;917;-85
2021/10/29 01:07:38;;;;;;;;;;;;;;;;;;345793;28;901;-84
2021/10/29 01:07:49;;;;;;;;;;;;;;;;;;345637;28;898;-84
2021/10/29 01:08:05;;;;;;;;;;;;;;;;;;347023;28;893;-85
2021/10/29 01:08:16;;;;;;;;;;;;;;;;;;347162;28;830;-84
2021/10/29 01:08:26;;;;;;;;;;;;;;;;;;345766;28;842;-83
2021/10/29 01:08:36;;;;;;;;;;;;;;;;;;345723;28;993;-83
2021/10/29 01:08:47;;;;;;;;;;;;;;;;;;345821;28;830;-85
2021/10/29 01:08:57;;;;;;;;;;;;;;;;;;346249;28;815;-84
2021/10/29 01:09:07;;;;;;;;;;;;;;;;;;345669;28;1441;-85
2021/10/29 01:09:18;;;;;;;;;;;;;;;;;;345775;28;834;-84
2021/10/29 01:09:28;;;;;;;;;;;;;;;;;;345832;28;861;-86
2021/10/29 01:09:39;;;;;;;;;;;;;;;;;;344448;28;842;-83
2021/10/29 01:09:50;;;;;;;;;;;;;;;;;;345749;28;814;-85
2021/10/29 01:10:01;;;;;;;;;;;;;;;;;;345314;28;1026;-82
2021/10/29 01:10:11;;;;;;;;;;;;;;;;;;345682;28;985;-82
2021/10/29 01:10:22;;;;;;;;;;;;;;;;;;346270;28;973;-86
2021/10/29 01:10:32;;;;;;;;;;;;;;;;;;347008;28;1103;-85
2021/10/29 01:10:43;;;;;;;;;;;;;;;;;;347160;28;802;-86
2021/10/29 01:10:53;;;;;;;;;;;;;;;;;;347145;28;849;-83
2021/10/29 01:11:04;;;;;;;;;;;;;;;;;;347721;28;1422;-84
2021/10/29 01:11:17;;;;;;;;;;;;;;;;;;348446;28;865;-84
2021/10/29 01:11:27;;;;;;;;;;;;;;;;;;348513;28;951;-84
2021/10/29 01:11:42;;;;;;;;;;;;;;;;;;348500;28;834;-85
2021/10/29 01:11:52;;;;;;;;;;;;;;;;;;348483;28;790;-85
2021/10/29 01:12:04;;;;;;;;;;;;;;;;;;348467;28;912;-85
2021/10/29 01:12:40;;;;;;;;;;;;;;;;;;347708;28;873;-84
2021/10/29 01:12:50;;;;;;;;;;;;;;;;;;347086;28;977;-85
2021/10/29 01:13:01;;;;;;;;;;;;;;;;;;345685;28;1419;-85
2021/10/29 01:13:11;;;;;;;;;;;;;;;;;;347732;28;1439;-83
2021/10/29 01:13:22;;;;;;;;;;;;;;;;;;348403;28;982;-84
2021/10/29 01:13:32;;;;;;;;;;;;;;;;;;348474;28;965;-83
2021/10/29 01:13:43;;;;;;;;;;;;;;;;;;348500;28;870;-85
2021/10/29 01:13:54;;;;;;;;;;;;;;;;;;348480;28;873;-84
2021/10/29 01:14:04;;;;;;;;;;;;;;;;;;348490;28;794;-85
2021/10/29 01:14:14;;;;;;;;;;;;;;;;;;348478;28;937;-85
2021/10/29 01:14:30;;;;;;;;;;;;;;;;;;348340;28;965;-84
2021/10/29 01:14:41;;;;;;;;;;;;;;;;;;348500;28;897;-84
2021/10/29 01:14:53;;;;;;;;;;;;;;;;;;348491;28;814;-81
2021/10/29 01:15:04;;;;;;;;;;;;;;;;;;348295;28;1066;-84
2021/10/29 01:15:14;;;;;;;;;;;;;;;;;;347138;28;917;-83
2021/10/29 01:15:25;;;;;;;;;;;;;;;;;;346849;28;958;-83
2021/10/29 01:15:35;;;;;;;;;;;;;;;;;;346722;28;798;-83
2021/10/29 01:15:46;;;;;;;;;;;;;;;;;;345680;28;858;-83
2021/10/29 01:15:57;;;;;;;;;;;;;;;;;;345741;28;1031;-84
2021/10/29 01:16:07;;;;;;;;;;;;;;;;;;345726;28;985;-83
2021/10/29 01:16:19;;;;;;;;;;;;;;;;;;347141;28;640;-84
2021/10/29 01:16:29;;;;;;;;;;;;;;;;;;345601;28;1151;-85
2021/10/29 01:16:39;;;;;;;;;;;;;;;;;;345636;28;988;-84
2021/10/29 01:16:50;;;;;;;;;;;;;;;;;;344247;28;1169;-85
2021/10/29 01:17:01;;;;;;;;;;;;;;;;;;345718;28;1486;-85
2021/10/29 01:17:11;;;;;;;;;;;;;;;;;;344264;28;994;-84
2021/10/29 01:17:23;;;;;;;;;;;;;;;;;;344380;28;1065;-84
2021/10/29 01:17:33;;;;;;;;;;;;;;;;;;344331;28;931;-83
2021/10/29 01:17:44;;;;;;;;;;;;;;;;;;344402;28;771;-84
2021/10/29 01:17:54;;;;;;;;;;;;;;;;;;344390;28;881;-84
2021/10/29 01:18:05;;;;;;;;;;;;;;;;;;345715;28;973;-86
2021/10/29 01:18:15;;;;;;;;;;;;;;;;;;347011;28;1325;-84
2021/10/29 01:18:25;;;;;;;;;;;;;;;;;;347900;28;992;-85
2021/10/29 01:18:36;;;;;;;;;;;;;;;;;;348368;28;1652;-85
2021/10/29 01:18:46;;;;;;;;;;;;;;;;;;348405;28;976;-85
2021/10/29 01:18:59;;;;;;;;;;;;;;;;;;346914;28;1595;-83
2021/10/29 01:19:16;;;;;;;;;;;;;;;;;;347095;28;977;-84
2021/10/29 01:19:30;;;;;;;;;;;;;;;;;;347118;28;976;-86
2021/10/29 01:19:41;;;;;;;;;;;;;;;;;;346822;28;1282;-86
2021/10/29 01:19:52;;;;;;;;;;;;;;;;;;347089;28;810;-84
2021/10/29 01:20:03;;;;;;;;;;;;;;;;;;347062;28;819;-85
2021/10/29 01:20:21;;;;;;;;;;;;;;;;;;345753;28;822;-84
2021/10/29 01:20:31;;;;;;;;;;;;;;;;;;345602;28;964;-80
2021/10/29 01:20:42;;;;;;;;;;;;;;;;;;345643;28;933;-83
2021/10/29 01:20:52;;;;;;;;;;;;;;;;;;347556;28;1211;-84
2021/10/29 01:21:02;;;;;;;;;;;;;;;;;;346815;28;1165;-79
2021/10/29 01:21:13;;;;;;;;;;;;;;;;;;345709;28;1171;-85
2021/10/29 01:21:24;;;;;;;;;;;;;;;;;;345743;28;996;-82
2021/10/29 01:21:34;;;;;;;;;;;;;;;;;;346064;28;984;-84
2021/10/29 01:21:45;;;;;;;;;;;;;;;;;;347056;28;853;-81
2021/10/29 01:22:22;;;;;;;;;;;;;;;;;;347074;28;906;-84
2021/10/29 01:22:33;;;;;;;;;;;;;;;;;;347094;28;1016;-86
2021/10/29 01:22:43;;;;;;;;;;;;;;;;;;347085;28;775;-84
2021/10/29 01:22:53;;;;;;;;;;;;;;;;;;345731;28;814;-83
2021/10/29 01:23:04;;;;;;;;;;;;;;;;;;345611;28;1180;-83
2021/10/29 01:23:14;;;;;;;;;;;;;;;;;;345720;28;855;-82
2021/10/29 01:23:25;;;;;;;;;;;;;;;;;;344447;28;830;-83
2021/10/29 01:23:36;;;;;;;;;;;;;;;;;;344406;28;1053;-83
2021/10/29 01:23:47;;;;;;;;;;;;;;;;;;344462;28;997;-84
2021/10/29 01:23:57;;;;;;;;;;;;;;;;;;344402;28;795;-84
2021/10/29 01:24:08;;;;;;;;;;;;;;;;;;344400;28;881;-83
2021/10/29 01:24:18;;;;;;;;;;;;;;;;;;345624;28;1273;-82
2021/10/29 01:24:29;;;;;;;;;;;;;;;;;;344336;28;1136;-84
2021/10/29 01:24:40;;;;;;;;;;;;;;;;;;344294;28;1312;-84
2021/10/29 01:24:50;;;;;;;;;;;;;;;;;;344382;28;857;-82
2021/10/29 01:25:01;;;;;;;;;;;;;;;;;;344310;28;1364;-82
2021/10/29 01:25:12;;;;;;;;;;;;;;;;;;345440;28;1419;-84
2021/10/29 01:26:08;;;;;;;;;;;;;;;;;;347003;28;1350;-84
2021/10/29 01:26:19;;;;;;;;;;;;;;;;;;345691;28;992;-84
2021/10/29 01:26:29;;;;;;;;;;;;;;;;;;344346;28;988;-86
2021/10/29 01:26:40;;;;;;;;;;;;;;;;;;345735;28;1008;-87
2021/10/29 01:26:51;;;;;;;;;;;;;;;;;;345781;28;969;-87
2021/10/29 01:27:08;;;;;;;;;;;;;;;;;;345768;28;993;-87
2021/10/29 01:27:18;;;;;;;;;;;;;;;;;;348289;28;1294;-85
2021/10/29 01:27:29;;;;;;;;;;;;;;;;;;345630;28;1184;-83
2021/10/29 01:27:40;;;;;;;;;;;;;;;;;;344234;28;1037;-83
2021/10/29 01:27:50;;;;;;;;;;;;;;;;;;344412;28;827;-85
2021/10/29 01:28:01;;;;;;;;;;;;;;;;;;344360;28;842;-85
2021/10/29 01:28:11;;;;;;;;;;;;;;;;;;345691;28;996;-85
2021/10/29 01:28:22;;;;;;;;;;;;;;;;;;345781;28;783;-86
2021/10/29 01:28:32;;;;;;;;;;;;;;;;;;345694;28;1438;-87
2021/10/29 01:28:49;;;;;;;;;;;;;;;;;;345671;28;980;-87
2021/10/29 01:29:05;;;;;;;;;;;;;;;;;;345579;28;1466;-84
2021/10/29 01:29:16;;;;;;;;;;;;;;;;;;345726;28;893;-84
2021/10/29 01:29:26;;;;;;;;;;;;;;;;;;345556;28;942;-85
2021/10/29 01:29:36;;;;;;;;;;;;;;;;;;345687;28;794;-85
2021/10/29 01:29:47;;;;;;;;;;;;;;;;;;345728;28;914;-84
2021/10/29 01:29:59;;;;;;;;;;;;;;;;;;345538;28;1512;-84
2021/10/29 01:30:25;;;;;;;;;;;;;;;;;;344751;28;945;-86
2021/10/29 01:30:36;;;;;;;;;;;;;;;;;;345650;28;1012;-84
2021/10/29 01:30:46;;;;;;;;;;;;;;;;;;345548;28;772;-84
2021/10/29 01:30:56;;;;;;;;;;;;;;;;;;345720;28;1082;-83
2021/10/29 01:31:07;;;;;;;;;;;;;;;;;;347130;28;909;-85
2021/10/29 01:31:20;;;;;;;;;;;;;;;;;;347092;28;882;-84
2021/10/29 01:31:37;;;;;;;;;;;;;;;;;;347039;28;929;-85
2021/10/29 01:31:48;;;;;;;;;;;;;;;;;;347101;28;984;-84
2021/10/29 01:31:58;;;;;;;;;;;;;;;;;;348306;28;877;-86
2021/10/29 01:32:09;;;;;;;;;;;;;;;;;;346963;28;882;-84
2021/10/29 01:32:26;;;;;;;;;;;;;;;;;;347108;28;790;-84
2021/10/29 01:32:38;;;;;;;;;;;;;;;;;;348453;28;1020;-84
2021/10/29 01:32:48;;;;;;;;;;;;;;;;;;348403;28;790;-85
2021/10/29 01:32:58;;;;;;;;;;;;;;;;;;347029;28;869;-82
2021/10/29 01:33:09;;;;;;;;;;;;;;;;;;345698;28;902;-86